createdAt,value
2023-05-22T00:00:18.692Z,50.13
2023-05-22T00:02:46.021Z,45.40
2023-05-22T00:05:13.894Z,47.33
2023-05-22T00:07:42.103Z,51.80
2023-05-22T00:10:09.587Z,48.47
2023-05-22T00:12:36.578Z,45.17
2023-05-22T00:15:05.264Z,46.70
2023-05-22T00:17:34.557Z,44.83
2023-05-22T00:20:08.389Z,39.30
2023-05-22T00:22:38.392Z,40.30
2023-05-22T00:25:05.805Z,37.30
2023-05-22T00:27:34.324Z,39.80
2023-05-22T00:30:01.410Z,40.30
2023-05-22T00:32:28.861Z,35.60
2023-05-22T00:34:56.160Z,39.63
2023-05-22T00:37:23.410Z,37.63
2023-05-22T00:39:50.647Z,37.10
2023-05-22T00:42:18.557Z,40.47
2023-05-22T00:44:46.099Z,39.33
2023-05-22T00:47:12.997Z,42.13
2023-05-22T00:49:40.102Z,48.30
2023-05-22T00:52:07.577Z,50.20
2023-05-22T00:54:34.943Z,47.97
2023-05-22T00:57:03.628Z,44.40
2023-05-22T00:59:31.216Z,41.67
2023-05-22T01:01:58.862Z,46.93
2023-05-22T01:04:26.060Z,48.93
2023-05-22T01:06:53.914Z,46.57
2023-05-22T01:09:21.043Z,46.67
2023-05-22T01:11:51.511Z,44.10
2023-05-22T01:14:18.522Z,44.57
2023-05-22T01:16:48.645Z,44.53
2023-05-22T01:22:17.688Z,44.70
2023-05-22T01:24:52.270Z,42.40
2023-05-22T01:27:28.968Z,41.67
2023-05-22T01:30:19.610Z,41.40
2023-05-22T01:32:47.251Z,44.63
2023-05-22T01:35:17.715Z,46.10
2023-05-22T01:37:45.663Z,43.90
2023-05-22T01:40:13.265Z,45.93
2023-05-22T01:42:41.478Z,44.97
2023-05-22T01:45:09.794Z,46.10
2023-05-22T01:47:37.422Z,46.77
2023-05-22T01:50:05.846Z,49.27
2023-05-22T01:52:41.116Z,47.80
2023-05-22T01:55:09.936Z,51.70
2023-05-22T01:57:51.929Z,47.27
2023-05-22T02:00:20.120Z,49.13
2023-05-22T02:02:53.681Z,49.70
2023-05-22T02:05:22.302Z,48.83
2023-05-22T02:07:50.248Z,48.40
2023-05-22T02:10:18.954Z,51.90
2023-05-22T02:12:46.181Z,45.00
2023-05-22T02:15:13.425Z,48.43
2023-05-22T02:17:40.555Z,47.10
2023-05-22T02:20:15.646Z,48.80
2023-05-22T02:22:46.914Z,48.60
2023-05-22T02:25:15.081Z,47.17
2023-05-22T02:27:45.353Z,47.27
2023-05-22T02:30:12.859Z,52.00
2023-05-22T02:32:42.029Z,47.77
2023-05-22T02:35:09.606Z,51.10
2023-05-22T02:37:37.081Z,49.83
2023-05-22T02:40:07.106Z,49.50
2023-05-22T02:42:34.679Z,48.57
2023-05-22T02:45:02.884Z,46.97
2023-05-22T02:47:33.029Z,47.10
2023-05-22T02:49:59.885Z,49.77
2023-05-22T02:52:28.541Z,46.37
2023-05-22T02:54:55.461Z,47.60
2023-05-22T02:57:23.072Z,48.90
2023-05-22T02:59:50.186Z,50.97
2023-05-22T03:02:17.903Z,47.20
2023-05-22T03:04:44.915Z,46.90
2023-05-22T03:07:12.415Z,49.07
2023-05-22T03:09:39.528Z,46.17
2023-05-22T03:12:06.775Z,45.57
2023-05-22T03:14:33.756Z,51.23
2023-05-22T03:17:01.017Z,49.10
2023-05-22T03:19:28.173Z,48.73
2023-05-22T03:21:55.237Z,49.17
2023-05-22T03:24:22.481Z,48.70
2023-05-22T03:26:49.489Z,49.67
2023-05-22T03:29:23.580Z,49.77
2023-05-22T03:31:50.808Z,46.60
2023-05-22T03:34:17.695Z,50.80
2023-05-22T03:36:47.479Z,46.47
2023-05-22T03:39:16.625Z,51.07
2023-05-22T03:41:53.227Z,45.77
2023-05-22T03:44:20.708Z,47.60
2023-05-22T03:46:47.706Z,46.00
2023-05-22T03:49:15.567Z,46.60
2023-05-22T03:51:42.435Z,46.23
2023-05-22T03:54:09.436Z,47.47
2023-05-22T03:56:36.359Z,47.10
2023-05-22T03:59:03.556Z,45.80
2023-05-22T04:01:31.518Z,45.37
2023-05-22T04:03:58.767Z,45.80
2023-05-22T04:06:26.129Z,44.67
2023-05-22T04:08:53.006Z,47.50
2023-05-22T04:11:21.221Z,44.27
2023-05-22T04:13:49.550Z,45.73
2023-05-22T04:16:17.649Z,44.23
2023-05-22T04:18:44.983Z,44.70
2023-05-22T04:21:12.881Z,41.40
2023-05-22T04:23:43.415Z,45.87
2023-05-22T04:26:10.551Z,44.17
2023-05-22T04:28:38.071Z,43.87
2023-05-22T04:31:06.841Z,45.30
2023-05-22T04:33:34.879Z,44.20
2023-05-22T04:36:02.577Z,43.20
2023-05-22T04:38:29.514Z,45.93
2023-05-22T04:40:56.764Z,44.47
2023-05-22T04:43:26.912Z,42.93
2023-05-22T04:45:54.814Z,44.17
2023-05-22T04:48:22.587Z,43.67
2023-05-22T04:50:50.415Z,45.90
2023-05-22T04:53:17.665Z,44.40
2023-05-22T04:55:44.792Z,42.77
2023-05-22T04:58:11.936Z,47.43
2023-05-22T05:00:39.056Z,48.83
2023-05-22T05:03:08.420Z,48.93
2023-05-22T05:05:35.438Z,50.20
2023-05-22T05:08:02.665Z,51.00
2023-05-22T05:10:29.926Z,56.23
2023-05-22T05:12:56.796Z,51.53
2023-05-22T05:15:24.034Z,51.67
2023-05-22T05:17:51.649Z,52.30
2023-05-22T05:20:18.682Z,51.10
2023-05-22T05:22:46.394Z,51.80
2023-05-22T05:25:14.938Z,52.33
2023-05-22T05:27:42.651Z,51.40
2023-05-22T05:30:10.766Z,52.03
2023-05-22T05:33:06.698Z,51.60
2023-05-22T05:35:53.818Z,52.07
2023-05-22T05:38:24.178Z,53.80
2023-05-22T05:40:51.547Z,48.17
2023-05-22T05:43:20.476Z,48.93
2023-05-22T05:45:48.114Z,49.77
2023-05-22T05:48:16.877Z,48.67
2023-05-22T05:50:46.036Z,48.77
2023-05-22T05:53:13.520Z,47.30
2023-05-22T05:55:45.084Z,48.57
2023-05-22T05:58:12.680Z,47.67
2023-05-22T06:00:57.566Z,49.37
2023-05-22T06:03:25.790Z,48.60
2023-05-22T06:06:21.818Z,52.53
2023-05-22T06:09:24.328Z,50.87
2023-05-22T06:12:06.694Z,49.27
2023-05-22T06:14:33.584Z,47.47
2023-05-22T06:17:00.494Z,49.53
2023-05-22T06:19:27.499Z,46.90
2023-05-22T06:21:54.818Z,49.17
2023-05-22T06:24:21.951Z,54.87
2023-05-22T06:26:50.273Z,49.70
2023-05-22T06:29:17.531Z,48.40
2023-05-22T06:31:46.664Z,51.00
2023-05-22T06:34:17.109Z,52.57
2023-05-22T06:36:46.324Z,53.63
2023-05-22T06:39:14.769Z,52.20
2023-05-22T06:42:00.362Z,50.40
2023-05-22T06:44:47.446Z,52.00
2023-05-22T06:47:14.437Z,53.87
2023-05-22T06:49:42.042Z,52.50
2023-05-22T06:52:09.982Z,49.30
2023-05-22T06:54:37.583Z,50.40
2023-05-22T06:57:05.301Z,50.80
2023-05-22T06:59:32.418Z,52.57
2023-05-22T07:02:22.230Z,48.50
2023-05-22T07:05:09.567Z,51.43
2023-05-22T07:07:47.425Z,51.73
2023-05-22T07:10:14.908Z,52.27
2023-05-22T07:12:41.912Z,48.10
2023-05-22T07:15:12.217Z,49.50
2023-05-22T07:17:42.038Z,52.10
2023-05-22T07:20:16.363Z,53.20
2023-05-22T07:22:50.212Z,51.87
2023-05-22T07:25:17.326Z,50.90
2023-05-22T07:27:44.329Z,50.90
2023-05-22T07:30:12.925Z,49.77
2023-05-22T07:32:41.286Z,47.80
2023-05-22T07:35:08.616Z,49.90
2023-05-22T07:37:36.661Z,50.03
2023-05-22T07:40:07.870Z,46.83
2023-05-22T07:42:35.099Z,48.93
2023-05-22T07:45:04.263Z,47.60
2023-05-22T07:47:31.960Z,48.70
2023-05-22T07:49:59.716Z,51.70
2023-05-22T07:52:27.792Z,52.87
2023-05-22T07:54:54.694Z,46.07
2023-05-22T07:57:23.117Z,53.00
2023-05-22T07:59:51.077Z,50.33
2023-05-22T08:02:18.820Z,49.60
2023-05-22T08:04:45.823Z,52.23
2023-05-22T08:07:12.929Z,51.37
2023-05-22T08:09:40.177Z,49.60
2023-05-22T08:12:07.997Z,51.17
2023-05-22T08:14:35.281Z,53.33
2023-05-22T08:17:02.310Z,53.40
2023-05-22T08:19:29.493Z,53.07
2023-05-22T08:21:58.389Z,53.30
2023-05-22T08:24:28.734Z,50.20
2023-05-22T08:26:56.857Z,53.47
2023-05-22T08:29:23.988Z,50.60
2023-05-22T08:31:52.368Z,52.20
2023-05-22T08:34:19.675Z,53.23
2023-05-22T08:36:46.553Z,53.27
2023-05-22T08:39:14.511Z,51.33
2023-05-22T08:41:44.039Z,51.13
2023-05-22T08:44:13.469Z,48.37
2023-05-22T08:46:45.508Z,48.90
2023-05-22T08:49:12.966Z,49.27
2023-05-22T08:51:40.814Z,53.70
2023-05-22T08:54:09.490Z,50.83
2023-05-22T08:56:39.883Z,55.57
2023-05-22T08:59:12.969Z,51.80
2023-05-22T09:01:39.945Z,53.07
2023-05-22T09:04:07.254Z,52.10
2023-05-22T09:06:34.117Z,52.43
2023-05-22T09:09:01.711Z,55.33
2023-05-22T09:11:28.716Z,52.37
2023-05-22T09:14:16.362Z,52.53
2023-05-22T09:16:44.227Z,57.60
2023-05-22T09:19:12.542Z,50.40
2023-05-22T09:21:39.448Z,54.27
2023-05-22T09:24:12.534Z,53.80
2023-05-22T09:26:40.120Z,50.40
2023-05-22T09:29:07.732Z,51.47
2023-05-22T09:31:41.746Z,55.10
2023-05-22T09:34:14.524Z,51.83
2023-05-22T09:36:42.612Z,52.63
2023-05-22T09:39:09.914Z,54.20
2023-05-22T09:41:37.928Z,51.77
2023-05-22T09:44:15.080Z,53.13
2023-05-22T09:46:42.939Z,50.60
2023-05-22T09:49:09.906Z,55.13
2023-05-22T09:51:39.912Z,57.87
2023-05-22T09:54:07.881Z,62.63
2023-05-22T09:56:39.965Z,58.27
2023-05-22T09:59:09.634Z,60.13
2023-05-22T10:01:38.746Z,60.50
2023-05-22T10:04:06.742Z,59.73
2023-05-22T10:06:34.775Z,60.10
2023-05-22T10:09:07.422Z,55.13
2023-05-22T10:11:34.655Z,54.43
2023-05-22T10:14:02.850Z,59.93
2023-05-22T10:16:30.483Z,60.60
2023-05-22T10:18:58.156Z,59.57
2023-05-22T10:21:25.687Z,60.70
2023-05-22T10:23:53.633Z,57.07
2023-05-22T10:26:21.512Z,59.87
2023-05-22T10:28:53.146Z,58.23
2023-05-22T10:31:37.167Z,61.30
2023-05-22T10:34:30.246Z,56.50
2023-05-22T10:37:13.270Z,56.27
2023-05-22T10:39:53.396Z,59.40
2023-05-22T10:42:20.528Z,59.57
2023-05-22T10:44:48.391Z,57.17
2023-05-22T10:47:15.369Z,55.30
2023-05-22T10:49:44.424Z,59.47
2023-05-22T10:52:11.889Z,56.17
2023-05-22T10:54:46.032Z,58.83
2023-05-22T10:57:17.060Z,58.90
2023-05-22T10:59:44.430Z,59.17
2023-05-22T11:02:21.744Z,55.50
2023-05-22T11:04:49.289Z,54.33
2023-05-22T11:07:16.250Z,48.63
2023-05-22T11:09:46.040Z,52.20
2023-05-22T11:12:27.552Z,53.20
2023-05-22T11:14:59.558Z,54.20
2023-05-22T11:17:28.089Z,58.30
2023-05-22T11:19:59.400Z,51.47
2023-05-22T11:22:33.788Z,52.20
2023-05-22T11:25:03.313Z,52.33
2023-05-22T11:27:30.166Z,57.20
2023-05-22T11:29:57.179Z,56.77
2023-05-22T11:32:24.544Z,57.53
2023-05-22T11:34:51.433Z,59.63
2023-05-22T11:37:19.137Z,56.80
2023-05-22T11:39:56.128Z,61.97
2023-05-22T11:42:23.466Z,59.50
2023-05-22T11:44:50.596Z,59.30
2023-05-22T11:47:17.598Z,59.57
2023-05-22T11:49:44.716Z,57.33
2023-05-22T11:52:11.605Z,61.03
2023-05-22T11:54:39.037Z,59.83
2023-05-22T11:57:09.327Z,60.30
2023-05-22T11:59:36.313Z,58.80
2023-05-22T12:02:03.202Z,54.40
2023-05-22T12:04:30.319Z,59.93
2023-05-22T12:06:57.244Z,56.40
2023-05-22T12:09:24.209Z,57.33
2023-05-22T12:11:51.100Z,61.53
2023-05-22T12:14:18.085Z,51.87
2023-05-22T12:16:45.187Z,56.90
2023-05-22T12:19:13.010Z,61.80
2023-05-22T12:21:42.204Z,59.10
2023-05-22T12:24:09.096Z,58.77
2023-05-22T12:26:36.494Z,61.60
2023-05-22T12:29:06.701Z,59.57
2023-05-22T12:31:38.722Z,61.37
2023-05-22T12:34:08.905Z,61.20
2023-05-22T12:36:38.051Z,62.00
2023-05-22T12:39:12.170Z,57.67
2023-05-22T12:41:39.292Z,59.40
2023-05-22T12:44:06.560Z,62.53
2023-05-22T12:46:34.150Z,61.50
2023-05-22T12:49:02.051Z,59.03
2023-05-22T12:51:30.028Z,57.37
2023-05-22T12:53:57.397Z,54.00
2023-05-22T12:56:24.618Z,55.60
2023-05-22T12:58:51.734Z,55.63
2023-05-22T13:01:18.880Z,56.30
2023-05-22T13:03:46.349Z,55.10
2023-05-22T13:06:13.217Z,58.27
2023-05-22T13:08:40.220Z,60.43
2023-05-22T13:11:07.234Z,56.30
2023-05-22T13:13:34.239Z,58.10
2023-05-22T13:16:01.378Z,55.47
2023-05-22T13:18:28.353Z,57.03
2023-05-22T13:20:57.798Z,54.67
2023-05-22T13:23:24.763Z,55.90
2023-05-22T13:25:51.772Z,55.20
2023-05-22T13:28:18.762Z,54.40
2023-05-22T13:30:45.998Z,55.37
2023-05-22T13:33:13.851Z,55.90
2023-05-22T13:35:41.360Z,58.37
2023-05-22T13:38:08.329Z,56.13
2023-05-22T13:40:36.675Z,54.57
2023-05-22T13:43:03.661Z,54.13
2023-05-22T13:45:31.269Z,56.17
2023-05-22T13:47:58.295Z,56.30
2023-05-22T13:50:25.502Z,57.90
2023-05-22T13:52:52.390Z,55.50
2023-05-22T13:55:19.517Z,53.80
2023-05-22T13:57:46.641Z,54.93
2023-05-22T14:00:13.885Z,58.50
2023-05-22T14:02:40.963Z,56.83
2023-05-22T14:05:08.496Z,60.33
2023-05-22T14:07:35.634Z,58.30
2023-05-22T14:10:02.603Z,62.57
2023-05-22T14:12:29.999Z,58.17
2023-05-22T14:14:56.967Z,56.60
2023-05-22T14:17:23.858Z,56.50
2023-05-22T14:19:50.854Z,59.63
2023-05-22T14:22:18.092Z,56.90
2023-05-22T14:24:44.990Z,56.13
2023-05-22T14:27:11.863Z,59.20
2023-05-22T14:29:38.759Z,58.27
2023-05-22T14:32:05.752Z,56.17
2023-05-22T14:34:32.632Z,60.17
2023-05-22T14:36:59.626Z,60.20
2023-05-22T14:39:26.512Z,62.57
2023-05-22T14:41:54.002Z,59.87
2023-05-22T14:44:22.654Z,57.17
2023-05-22T14:46:51.123Z,59.00
2023-05-22T14:49:18.246Z,60.50
2023-05-22T14:51:48.180Z,57.67
2023-05-22T14:54:17.892Z,58.20
2023-05-22T14:56:45.431Z,60.90
2023-05-22T14:59:12.740Z,56.40
2023-05-22T15:01:39.639Z,60.33
2023-05-22T15:04:07.986Z,57.70
2023-05-22T15:06:35.297Z,60.10
2023-05-22T15:09:02.199Z,61.30
2023-05-22T15:11:29.445Z,60.93
2023-05-22T15:13:56.409Z,59.40
2023-05-22T15:16:23.853Z,57.70
2023-05-22T15:18:51.181Z,57.83
2023-05-22T15:21:18.296Z,59.43
2023-05-22T15:23:45.529Z,61.83
2023-05-22T15:26:12.525Z,57.57
2023-05-22T15:28:39.416Z,55.07
2023-05-22T15:31:06.646Z,60.23
2023-05-22T15:33:34.483Z,60.17
2023-05-22T15:36:01.517Z,60.30
2023-05-22T15:38:28.980Z,56.30
2023-05-22T15:40:55.972Z,60.23
2023-05-22T15:43:24.345Z,57.60
2023-05-22T15:45:53.762Z,53.03
2023-05-22T15:48:21.067Z,49.70
2023-05-22T15:50:48.191Z,55.27
2023-05-22T15:53:15.189Z,55.50
2023-05-22T15:55:42.219Z,55.93
2023-05-22T15:58:09.333Z,57.87
2023-05-22T16:00:41.251Z,59.23
2023-05-22T16:03:09.219Z,58.87
2023-05-22T16:05:36.928Z,60.00
2023-05-22T16:08:03.796Z,59.30
2023-05-22T16:10:31.068Z,61.97
2023-05-22T16:12:58.054Z,64.30
2023-05-22T16:15:25.179Z,59.47
2023-05-22T16:17:52.386Z,57.73
2023-05-22T16:20:20.317Z,56.93
2023-05-22T16:22:49.268Z,56.20
2023-05-22T16:25:17.022Z,56.03
2023-05-22T16:27:44.511Z,59.20
2023-05-22T16:30:12.349Z,56.87
2023-05-22T16:32:39.499Z,56.10
2023-05-22T16:35:06.823Z,58.97
2023-05-22T16:37:33.849Z,51.47
2023-05-22T16:40:00.926Z,56.57
2023-05-22T16:42:28.083Z,58.37
2023-05-22T16:44:55.212Z,54.77
2023-05-22T16:47:22.329Z,57.67
2023-05-22T16:49:49.804Z,55.40
2023-05-22T16:52:18.281Z,55.37
2023-05-22T16:54:45.380Z,58.87
2023-05-22T16:57:12.380Z,51.97
2023-05-22T16:59:39.614Z,56.17
2023-05-22T17:02:06.636Z,53.60
2023-05-22T17:04:33.581Z,52.00
2023-05-22T17:07:00.753Z,50.10
2023-05-22T17:09:28.003Z,50.77
2023-05-22T17:11:55.005Z,51.47
2023-05-22T17:14:22.251Z,49.90
2023-05-22T17:16:49.368Z,55.07
2023-05-22T17:19:20.126Z,52.80
2023-05-22T17:21:47.942Z,50.30
2023-05-22T17:24:15.405Z,55.40
2023-05-22T17:26:44.197Z,54.80
2023-05-22T17:29:11.949Z,50.10
2023-05-22T17:31:39.642Z,52.73
2023-05-22T17:34:07.013Z,52.07
2023-05-22T17:36:34.251Z,46.57
2023-05-22T17:39:01.276Z,49.70
2023-05-22T17:41:28.733Z,47.60
2023-05-22T17:43:57.188Z,48.27
2023-05-22T17:46:24.557Z,45.80
2023-05-22T17:48:51.546Z,49.50
2023-05-22T17:51:18.544Z,43.77
2023-05-22T17:53:46.619Z,43.00
2023-05-22T17:56:13.628Z,44.77
2023-05-22T17:58:40.891Z,39.23
2023-05-22T18:01:07.980Z,39.60
2023-05-22T18:03:35.326Z,38.30
2023-05-22T18:06:02.422Z,38.00
2023-05-22T18:08:29.600Z,36.97
2023-05-22T18:10:58.075Z,36.27
2023-05-22T18:13:25.163Z,36.57
2023-05-22T18:15:52.326Z,35.50
2023-05-22T18:18:19.285Z,35.63
2023-05-22T18:20:46.528Z,35.60
2023-05-22T18:23:13.772Z,35.40
2023-05-22T18:25:41.648Z,39.63
2023-05-22T18:28:08.620Z,38.33
2023-05-22T18:30:35.627Z,38.03
2023-05-22T18:33:03.881Z,35.43
2023-05-22T18:35:30.954Z,36.43
2023-05-22T18:38:00.950Z,36.27
2023-05-22T18:40:27.940Z,36.30
2023-05-22T18:42:55.070Z,39.27
2023-05-22T18:45:21.945Z,40.30
2023-05-22T18:47:49.138Z,34.70
2023-05-22T18:50:16.070Z,37.20
2023-05-22T18:52:43.085Z,39.73
2023-05-22T18:55:10.675Z,38.23
2023-05-22T18:57:37.687Z,38.23
2023-05-22T19:00:04.955Z,36.90
2023-05-22T19:02:32.135Z,38.20
2023-05-22T19:04:59.339Z,41.67
2023-05-22T19:07:27.066Z,38.67
2023-05-22T19:09:54.036Z,36.57
2023-05-22T19:12:21.017Z,36.90
2023-05-22T19:14:49.817Z,40.70
2023-05-22T19:17:17.242Z,38.93
2023-05-22T19:19:44.567Z,40.40
2023-05-22T19:22:11.601Z,41.27
2023-05-22T19:24:38.700Z,40.93
2023-05-22T19:27:06.159Z,39.77
2023-05-22T19:29:33.282Z,38.60
2023-05-22T19:32:00.635Z,38.70
2023-05-22T19:34:27.635Z,39.30
2023-05-22T19:36:57.715Z,40.23
2023-05-22T19:39:25.138Z,39.30
2023-05-22T19:41:52.842Z,45.37
2023-05-22T19:44:20.108Z,44.60
2023-05-22T19:46:47.305Z,45.53
2023-05-22T19:49:14.487Z,46.63
2023-05-22T19:51:42.542Z,44.30
2023-05-22T19:54:09.562Z,47.00
2023-05-22T19:56:37.395Z,45.20
2023-05-22T19:59:04.509Z,44.80
2023-05-22T20:01:31.590Z,48.70
2023-05-22T20:03:58.866Z,48.50
2023-05-22T20:06:30.308Z,51.70
2023-05-22T20:08:57.919Z,52.20
2023-05-22T20:11:25.052Z,49.87
2023-05-22T20:13:54.600Z,50.20
2023-05-22T20:16:21.742Z,46.83
2023-05-22T20:18:49.042Z,49.03
2023-05-22T20:21:16.098Z,45.20
2023-05-22T20:23:43.293Z,43.70
2023-05-22T20:26:10.298Z,46.57
2023-05-22T20:28:37.299Z,44.47
2023-05-22T20:31:06.093Z,44.73
2023-05-22T20:33:33.098Z,42.70
2023-05-22T20:36:01.566Z,41.87
2023-05-22T20:38:29.511Z,41.87
2023-05-22T20:40:58.451Z,41.30
2023-05-22T20:43:26.300Z,38.27
2023-05-22T20:45:53.355Z,40.70
2023-05-22T20:48:20.274Z,38.43
2023-05-22T20:50:47.752Z,39.20
2023-05-22T20:53:15.031Z,39.10
2023-05-22T20:55:42.042Z,37.67
2023-05-22T20:58:09.534Z,39.77
2023-05-22T21:00:36.492Z,41.70
2023-05-22T21:03:03.697Z,40.47
2023-05-22T21:05:30.843Z,38.63
2023-05-22T21:07:57.970Z,43.40
2023-05-22T21:10:24.873Z,40.53
2023-05-22T21:12:51.856Z,43.83
2023-05-22T21:15:18.982Z,42.93
2023-05-22T21:17:46.032Z,42.67
2023-05-22T21:20:13.122Z,38.10
2023-05-22T21:22:40.114Z,41.13
2023-05-22T21:25:07.467Z,39.03
2023-05-22T21:27:34.343Z,38.20
2023-05-22T21:30:01.123Z,40.13
2023-05-22T21:32:28.486Z,38.93
2023-05-22T21:34:55.605Z,39.80
2023-05-22T21:37:22.491Z,41.83
2023-05-22T21:39:49.488Z,42.10
2023-05-22T21:42:16.968Z,40.83
2023-05-22T21:44:43.995Z,36.63
2023-05-22T21:47:11.215Z,36.93
2023-05-22T21:49:39.701Z,36.43
2023-05-22T21:52:06.921Z,32.67
2023-05-22T21:54:33.898Z,33.90
2023-05-22T21:57:01.165Z,33.43
2023-05-22T21:59:28.209Z,32.17
2023-05-22T22:01:55.195Z,30.20
2023-05-22T22:04:22.269Z,27.83
2023-05-22T22:06:49.511Z,34.27
2023-05-22T22:09:16.633Z,33.47
2023-05-22T22:11:43.514Z,35.23
2023-05-22T22:14:10.509Z,34.43
2023-05-22T22:16:37.797Z,31.73
2023-05-22T22:19:05.165Z,38.63
2023-05-22T22:21:33.481Z,36.60
2023-05-22T22:24:00.448Z,49.90
2023-05-22T22:26:30.932Z,41.93
2023-05-22T22:28:57.807Z,38.40
2023-05-22T22:31:24.863Z,42.13
2023-05-22T22:33:51.700Z,39.60
2023-05-22T22:36:18.586Z,29.93
2023-05-22T22:38:45.579Z,30.07
2023-05-22T22:41:12.587Z,30.40
2023-05-22T22:43:39.462Z,32.10
2023-05-22T22:46:06.748Z,32.70
2023-05-22T22:48:33.832Z,29.30
2023-05-22T22:51:00.720Z,25.93
2023-05-22T22:53:27.595Z,25.93
2023-05-22T22:55:55.923Z,24.03
2023-05-22T22:58:23.054Z,27.43
2023-05-22T23:00:50.050Z,22.40
2023-05-22T23:03:16.954Z,20.00
2023-05-22T23:05:44.511Z,18.80
2023-05-22T23:08:11.779Z,17.17
2023-05-22T23:10:38.781Z,16.20
2023-05-22T23:13:05.771Z,17.47
2023-05-22T23:15:33.386Z,13.87
2023-05-22T23:18:00.272Z,15.70
2023-05-22T23:20:27.149Z,14.57
2023-05-22T23:22:54.147Z,14.90
2023-05-22T23:25:21.157Z,13.73
2023-05-22T23:27:48.146Z,12.50
2023-05-22T23:30:15.171Z,12.20
2023-05-22T23:32:42.104Z,12.37
2023-05-22T23:35:09.780Z,12.03
2023-05-22T23:37:36.758Z,13.13
2023-05-22T23:40:05.602Z,12.80
2023-05-22T23:42:32.928Z,12.40
2023-05-22T23:44:59.935Z,14.87
2023-05-22T23:47:26.857Z,15.27
2023-05-22T23:49:55.497Z,13.87
2023-05-22T23:52:23.095Z,14.67
2023-05-22T23:54:50.216Z,14.60
2023-05-22T23:57:17.106Z,16.23
2023-05-22T23:59:43.981Z,17.00
